IV3JTV-1 Weather Reports


time (UTC)temp
F
wind
direction
speed
knots
gust
knots
rain 1hr
in
rain 24hr
in
rain mn
in
humidity
%
barometer
mb
20260906060514 83 0 0.0 0.0 0.00 0.00 0.00 35 999.0
20260906054952 84 0 0.0 0.0 0.00 0.00 0.00 34 999.0
20260906053430 83 0 0.0 0.0 0.00 0.00 0.00 36 999.0
20260906051908 80 0 0.0 0.0 0.00 0.00 0.00 39 999.0
20260906050346 79 0 0.0 0.0 0.00 0.00 0.00 39 999.0
20260906044824 79 0 0.0 0.0 0.00 0.00 0.00 39 999.0
20260906043302 79 0 0.0 0.0 0.00 0.00 0.00 38 999.0
20260906041740 79 0 0.0 0.0 0.00 0.00 0.00 39 998.0
20260906040218 79 0 0.0 0.0 0.00 0.00 0.00 39 998.0
20260906034656 79 0 0.0 0.0 0.00 0.00 0.00 39 998.0
20260906033134 80 0 0.0 0.0 0.00 0.00 0.00 38 998.0
20260906031612 79 0 0.0 0.0 0.00 0.00 0.00 39 998.0
20260906030050 80 0 0.0 0.0 0.00 0.00 0.00 38 998.0
20260906021012 81 0 0.0 0.0 0.00 0.00 0.00 38 998.0
20260906015451 81 0 0.0 0.0 0.00 0.00 0.00 36 998.0
20260906013927 82 0 0.0 0.0 0.00 0.00 0.00 37 998.0
20260906012405 81 0 0.0 0.0 0.00 0.00 0.00 37 998.0
20260906010844 81 0 0.0 0.0 0.00 0.00 0.00 38 998.0
20260906005322 81 0 0.0 0.0 0.00 0.00 0.00 37 998.0
20260906003752 81 0 0.0 0.0 0.00 0.00 0.00 38 998.0
20260906002223 82 0 0.0 0.0 0.00 0.00 0.00 37 998.0
20260906000623 81 0 0.0 0.0 0.00 0.00 0.00 38 998.0
20260905235101 81 0 0.0 0.0 0.00 0.00 0.00 38 997.0
20260905233539 81 0 0.0 0.0 0.00 0.00 0.00 38 997.0
20260905232017 81 0 0.0 0.0 0.00 0.00 0.00 40 997.0
20260905230455 80 0 0.0 0.0 0.00 0.00 0.00 40 997.0
20260905224933 81 0 0.0 0.0 0.00 0.00 0.00 39 997.0
20260905223411 81 0 0.0 0.0 0.00 0.00 0.00 39 997.0
20260905221849 81 0 0.0 0.0 0.00 0.00 0.00 40 997.0
20260905220327 82 0 0.0 0.0 0.00 0.00 0.00 39 997.0
20260905214805 82 0 0.0 0.0 0.00 0.00 0.00 39 997.0
20260905213243 82 0 0.0 0.0 0.00 0.00 0.00 40 997.0
20260905211721 83 0 0.0 0.0 0.00 0.00 0.00 39 997.0
20260905210159 84 0 0.0 0.0 0.00 0.00 0.00 39 997.0
20260905204637 84 0 0.0 0.0 0.00 0.00 0.00 39 997.0
20260905203115 84 0 0.0 0.0 0.00 0.00 0.00 39 997.0
20260905201553 84 0 0.0 0.0 0.00 0.00 0.00 39 997.0
20260905200031 84 0 0.0 0.0 0.00 0.00 0.00 40 997.0
20260905194509 84 0 0.0 0.0 0.00 0.00 0.00 40 996.0
20260905192947 85 0 0.0 0.0 0.00 0.00 0.00 39 996.0
20260905191425 84 0 0.0 0.0 0.00 0.00 0.00 39 996.0
20260905185903 85 0 0.0 0.0 0.00 0.00 0.00 39 996.0
20260905184341 85 0 0.0 0.0 0.00 0.00 0.00 38 996.0
20260905182819 86 0 0.0 0.0 0.00 0.00 0.00 37 996.0
20260905181257 87 0 0.0 0.0 0.00 0.00 0.00 38 996.0
20260905175735 88 0 0.0 0.0 0.00 0.00 0.00 37 995.0
20260905174213 88 0 0.0 0.0 0.00 0.00 0.00 39 995.0
20260905172651 91 0 0.0 0.0 0.00 0.00 0.00 38 995.0
20260905171129 93 0 0.0 0.0 0.00 0.00 0.00 37 995.0
20260905165607 94 0 0.0 0.0 0.00 0.00 0.00 37 995.0
20260905164045 95 0 0.0 0.0 0.00 0.00 0.00 36 995.0
20260905162524 96 0 0.0 0.0 0.00 0.00 0.00 36 995.0
20260905161001 98 0 0.0 0.0 0.00 0.00 0.00 34 994.0
20260905155439 99 0 0.0 0.0 0.00 0.00 0.00 34 994.0
20260905153917 100 0 0.0 0.0 0.00 0.00 0.00 33 994.0
20260905152356 102 0 0.0 0.0 0.00 0.00 0.00 32 994.0
20260905150833 104 0 0.0 0.0 0.00 0.00 0.00 30 994.0
20260905145532 104 0 0.0 0.0 0.00 0.00 0.00 31 994.0
20260905144009 104 0 0.0 0.0 0.00 0.00 0.00 30 994.0
20260905142447 104 0 0.0 0.0 0.00 0.00 0.00 31 994.0
20260905140925 106 0 0.0 0.0 0.00 0.00 0.00 30 994.0
20260905135404 106 0 0.0 0.0 0.00 0.00 0.00 29 994.0
20260905133841 105 0 0.0 0.0 0.00 0.00 0.00 29 994.0
20260905132319 105 0 0.0 0.0 0.00 0.00 0.00 29 994.0
20260905130757 104 0 0.0 0.0 0.00 0.00 0.00 29 994.0
20260905125236 104 0 0.0 0.0 0.00 0.00 0.00 29 994.0
20260905123714 104 0 0.0 0.0 0.00 0.00 0.00 28 995.0
20260905122151 103 0 0.0 0.0 0.00 0.00 0.00 28 995.0
20260905120629 102 0 0.0 0.0 0.00 0.00 0.00 28 995.0
20260905115108 102 0 0.0 0.0 0.00 0.00 0.00 27 995.0
20260905113545 102 0 0.0 0.0 0.00 0.00 0.00 27 995.0
20260905112023 102 0 0.0 0.0 0.00 0.00 0.00 27 995.0
20260905110501 100 0 0.0 0.0 0.00 0.00 0.00 27 995.0
20260905104939 103 0 0.0 0.0 0.00 0.00 0.00 26 995.0
20260905103418 104 0 0.0 0.0 0.00 0.00 0.00 25 995.0
20260905101855 104 0 0.0 0.0 0.00 0.00 0.00 25 995.0
20260905100333 105 0 0.0 0.0 0.00 0.00 0.00 25 995.0
20260905094811 106 0 0.0 0.0 0.00 0.00 0.00 24 995.0
20260905093249 105 0 0.0 0.0 0.00 0.00 0.00 25 995.0
20260905091727 106 0 0.0 0.0 0.00 0.00 0.00 24 995.0
20260905090205 100 0 0.0 0.0 0.00 0.00 0.00 25 995.0
20260905084643 98 0 0.0 0.0 0.00 0.00 0.00 26 995.0
20260905083122 96 0 0.0 0.0 0.00 0.00 0.00 26 995.0
20260905081559 94 0 0.0 0.0 0.00 0.00 0.00 26 995.0
20260905080037 95 0 0.0 0.0 0.00 0.00 0.00 26 994.0
20260905074516 95 0 0.0 0.0 0.00 0.00 0.00 25 994.0
20260905072954 96 0 0.0 0.0 0.00 0.00 0.00 25 994.0
20260905071431 95 0 0.0 0.0 0.00 0.00 0.00 25 994.0
20260905065909 94 0 0.0 0.0 0.00 0.00 0.00 26 994.0
20260905064348 95 0 0.0 0.0 0.00 0.00 0.00 25 994.0
20260905062826 96 0 0.0 0.0 0.00 0.00 0.00 25 994.0